Time;durP1;ratioP1;P1;durP2;ratioP2;P2;SDS_P1;SDS_P2;PMS_P1;PMS_P2;Temp;Humidity;BMP_temperature;BMP_pressure;BME280_temperature;BME280_humidity;BME280_pressure;Samples;Min_cycle;Max_cycle;Signal;HPM_P1;HPM_P2
2021/06/12 00:02:19;;;;;;;3.20;2.93;;;20.30;99.90;;;;;;5082036;28;20473;-56
2021/06/12 00:04:49;;;;;;;2.40;2.20;;;20.40;99.90;;;;;;5080691;28;20542;-55
2021/06/12 00:07:22;;;;;;;2.40;2.20;;;20.50;99.90;;;;;;5062891;28;20740;-50
2021/06/12 00:09:55;;;;;;;2.70;2.50;;;20.20;99.90;;;;;;5076187;28;20495;-52
2021/06/12 00:12:25;;;;;;;2.37;2.27;;;19.80;99.90;;;;;;5082592;28;20537;-51
2021/06/12 00:15:00;;;;;;;2.40;2.13;;;19.70;99.90;;;;;;5067209;28;20453;-55
2021/06/12 00:17:31;;;;;;;3.00;2.80;;;19.90;99.90;;;;;;5070241;28;20458;-51
2021/06/12 00:20:01;;;;;;;3.50;2.97;;;19.90;99.90;;;;;;5074139;28;20504;-55
2021/06/12 00:22:36;;;;;;;3.33;2.70;;;20.00;99.90;;;;;;5082267;28;20430;-54
2021/06/12 00:25:08;;;;;;;2.97;2.77;;;19.90;99.90;;;;;;5080800;28;20418;-52
2021/06/12 00:27:40;;;;;;;3.17;2.90;;;19.90;99.90;;;;;;5083030;28;20475;-56
2021/06/12 00:30:14;;;;;;;3.57;3.10;;;19.80;99.90;;;;;;5081182;28;20462;-55
2021/06/12 00:32:44;;;;;;;3.10;2.80;;;19.80;99.90;;;;;;5082416;28;20426;-56
2021/06/12 00:35:15;;;;;;;2.93;2.57;;;20.00;99.90;;;;;;5085540;28;20433;-55
2021/06/12 00:37:46;;;;;;;2.80;2.60;;;20.10;99.90;;;;;;5086439;28;20433;-56
2021/06/12 00:40:17;;;;;;;3.53;3.23;;;20.10;99.90;;;;;;5082926;28;20441;-55
2021/06/12 00:42:48;;;;;;;3.60;3.30;;;20.10;99.90;;;;;;5071222;28;20443;-53
2021/06/12 00:45:23;;;;;;;3.70;3.27;;;19.80;99.90;;;;;;5069331;28;20447;-50
2021/06/12 00:47:55;;;;;;;3.70;3.40;;;19.70;99.90;;;;;;5074347;28;20505;-55
2021/06/12 00:50:28;;;;;;;3.90;3.37;;;19.80;99.90;;;;;;5082886;28;20457;-52
2021/06/12 00:52:58;;;;;;;3.27;3.00;;;19.80;99.90;;;;;;5086455;28;20444;-52
2021/06/12 00:55:29;;;;;;;2.83;2.63;;;19.90;99.90;;;;;;5085768;28;20496;-54
2021/06/12 00:58:00;;;;;;;2.80;2.60;;;19.80;99.90;;;;;;5086635;28;20427;-53
2021/06/12 01:00:32;;;;;;;3.60;3.03;;;19.60;99.90;;;;;;5085265;28;20486;-53
2021/06/12 01:03:03;;;;;;;3.73;3.20;;;19.40;99.90;;;;;;5070660;28;20457;-55
2021/06/12 01:05:34;;;;;;;4.23;2.97;;;19.50;99.90;;;;;;5085524;28;20474;-52
2021/06/12 01:08:04;;;;;;;3.60;3.30;;;19.50;99.90;;;;;;5085658;28;20447;-54
2021/06/12 01:10:35;;;;;;;3.17;2.80;;;19.50;99.90;;;;;;5085284;28;20872;-52
2021/06/12 01:13:13;;;;;;;3.00;2.80;;;19.50;99.90;;;;;;5085201;28;20482;-53
2021/06/12 01:15:53;;;;;;;2.67;1.80;;;19.30;99.90;;;;;;5085219;28;20744;-55
2021/06/12 01:18:30;;;;;;;11.33;3.17;;;19.10;99.90;;;;;;5085669;28;20447;-50
2021/06/12 01:21:04;;;;;;;2.10;2.00;;;19.10;99.90;;;;;;5085356;28;20458;-53
2021/06/12 01:24:05;;;;;;;2.27;2.07;;;19.00;99.90;;;;;;5085643;28;20455;-50
2021/06/12 01:27:03;;;;;;;1.90;1.80;;;18.90;99.90;;;;;;5085752;28;20551;-53
2021/06/12 01:30:17;;;;;;;2.03;1.83;;;19.00;99.90;;;;;;5084093;28;20482;-56
2021/06/12 01:32:53;;;;;;;1.63;1.53;;;19.20;99.90;;;;;;5067426;28;20889;-53
2021/06/12 01:35:30;;;;;;;2.30;2.10;;;19.20;99.90;;;;;;5074494;28;20494;-55
2021/06/12 01:38:01;;;;;;;2.33;2.17;;;19.10;99.90;;;;;;5086093;28;20451;-52
2021/06/12 01:40:34;;;;;;;2.07;1.97;;;19.10;99.90;;;;;;5084221;28;20430;-52
2021/06/12 01:43:07;;;;;;;1.80;1.70;;;19.00;99.90;;;;;;5083252;28;20450;-53
2021/06/12 01:45:41;;;;;;;1.90;1.80;;;19.00;99.90;;;;;;5084740;28;20499;-56
2021/06/12 01:48:14;;;;;;;2.40;2.20;;;19.20;99.90;;;;;;5083108;28;20534;-51
2021/06/12 01:50:45;;;;;;;2.10;1.90;;;19.10;99.90;;;;;;5084836;28;20493;-52
2021/06/12 01:53:18;;;;;;;2.23;2.03;;;19.00;99.90;;;;;;5085469;28;20451;-54
2021/06/12 01:55:50;;;;;;;2.50;2.10;;;19.10;99.90;;;;;;5084122;28;20436;-49
2021/06/12 01:58:22;;;;;;;2.07;1.97;;;19.10;99.90;;;;;;5085681;28;20419;-53
2021/06/12 02:00:53;;;;;;;3.30;2.17;;;19.00;99.90;;;;;;5085185;28;20451;-51
2021/06/12 02:03:26;;;;;;;2.23;1.90;;;19.00;99.90;;;;;;5084813;28;20451;-52
2021/06/12 02:05:57;;;;;;;2.03;1.70;;;19.00;99.90;;;;;;5083434;28;20439;-51
2021/06/12 02:08:28;;;;;;;1.87;1.73;;;18.90;99.90;;;;;;5075620;28;20414;-53
2021/06/12 02:11:00;;;;;;;1.83;1.73;;;18.80;99.90;;;;;;5083697;28;20541;-56
2021/06/12 02:13:31;;;;;;;2.30;2.10;;;18.70;99.90;;;;;;5084740;28;20466;-53
2021/06/12 02:16:03;;;;;;;1.90;1.80;;;18.60;99.90;;;;;;5084828;28;20461;-52
2021/06/12 02:18:37;;;;;;;2.40;2.20;;;18.60;99.90;;;;;;5083717;28;20429;-56
2021/06/12 02:21:08;;;;;;;1.97;1.87;;;18.60;99.90;;;;;;5080370;28;20440;-55
2021/06/12 02:23:39;;;;;;;2.77;2.23;;;18.50;99.90;;;;;;5084267;28;20458;-57
2021/06/12 02:26:10;;;;;;;2.23;1.90;;;18.30;99.90;;;;;;5073907;28;20448;-56
2021/06/12 02:28:40;;;;;;;1.70;1.60;;;18.30;99.90;;;;;;5073424;28;20569;-51
2021/06/12 02:31:15;;;;;;;1.90;1.80;;;18.20;99.90;;;;;;5083900;28;21010;-54
2021/06/12 02:33:49;;;;;;;2.07;1.97;;;18.20;99.90;;;;;;5078820;28;20447;-54
2021/06/12 02:36:20;;;;;;;2.10;1.80;;;18.20;99.90;;;;;;5062798;28;20456;-51
2021/06/12 02:38:52;;;;;;;2.10;1.90;;;18.30;99.90;;;;;;5068106;28;20737;-54
2021/06/12 02:41:23;;;;;;;2.03;1.70;;;18.10;99.90;;;;;;5062742;28;20529;-55
2021/06/12 02:43:54;;;;;;;3.20;2.00;;;18.00;99.90;;;;;;5079372;28;20471;-57
2021/06/12 02:49:21;;;;;;;1.60;1.50;;;17.90;99.90;;;;;;5084438;28;20509;-55
2021/06/12 02:51:58;;;;;;;2.90;2.10;;;17.70;99.90;;;;;;5084115;28;20920;-51
2021/06/12 02:54:29;;;;;;;1.50;1.37;;;17.60;99.90;;;;;;5082288;28;20449;-52
2021/06/12 02:57:01;;;;;;;1.63;1.53;;;17.50;99.90;;;;;;5084793;28;20447;-53
2021/06/12 02:59:32;;;;;;;1.53;1.30;;;17.50;99.90;;;;;;5084454;28;20922;-52
2021/06/12 03:02:04;;;;;;;2.00;1.40;;;17.60;99.90;;;;;;5084330;28;20477;-53
2021/06/12 03:04:38;;;;;;;1.90;1.60;;;17.60;99.90;;;;;;5081910;28;20501;-55
2021/06/12 03:07:09;;;;;;;1.70;1.60;;;17.70;99.90;;;;;;5083432;28;20451;-51
2021/06/12 03:09:40;;;;;;;1.53;1.43;;;17.60;99.90;;;;;;5082559;28;20502;-55
2021/06/12 03:12:12;;;;;;;1.60;1.50;;;17.70;99.90;;;;;;5084536;28;20447;-53
2021/06/12 03:14:45;;;;;;;1.73;1.63;;;17.70;99.90;;;;;;5083682;28;20430;-51
2021/06/12 03:17:16;;;;;;;1.37;1.27;;;17.80;99.90;;;;;;5083698;28;20451;-52
2021/06/12 03:19:48;;;;;;;1.70;1.60;;;17.70;99.90;;;;;;5083128;28;20514;-51
2021/06/12 03:22:19;;;;;;;1.30;1.20;;;17.60;99.90;;;;;;5083887;28;20423;-53
2021/06/12 03:24:50;;;;;;;1.43;1.30;;;17.60;99.90;;;;;;5082756;28;20857;-50
2021/06/12 03:27:21;;;;;;;1.40;1.30;;;17.60;99.90;;;;;;5083784;28;20447;-52
2021/06/12 03:29:53;;;;;;;2.07;1.53;;;17.50;99.90;;;;;;5082620;28;20479;-50
2021/06/12 03:32:24;;;;;;;1.70;1.60;;;17.40;99.90;;;;;;5084028;28;20494;-51
2021/06/12 03:34:57;;;;;;;1.70;1.60;;;17.30;99.90;;;;;;5083321;28;20414;-51
2021/06/12 03:37:28;;;;;;;2.00;1.60;;;17.30;99.90;;;;;;5082748;28;20452;-55
2021/06/12 03:39:59;;;;;;;1.90;1.80;;;17.20;99.90;;;;;;5081332;28;20443;-53
2021/06/12 03:42:30;;;;;;;2.10;1.90;;;17.30;99.90;;;;;;5081488;28;20407;-53
2021/06/12 03:45:05;;;;;;;2.17;1.97;;;17.20;99.90;;;;;;5082385;28;20498;-53
2021/06/12 03:47:37;;;;;;;1.50;1.40;;;17.20;99.90;;;;;;5081211;28;20446;-48
2021/06/12 03:50:12;;;;;;;3.13;1.93;;;17.20;99.90;;;;;;5073313;28;20479;-50
2021/06/12 03:52:44;;;;;;;1.90;1.80;;;17.30;99.90;;;;;;5082824;28;20902;-53
2021/06/12 03:55:14;;;;;;;1.77;1.67;;;17.30;99.90;;;;;;5077419;28;20443;-50
2021/06/12 03:57:45;;;;;;;3.67;2.07;;;17.20;99.90;;;;;;5083474;28;20451;-51
2021/06/12 04:00:18;;;;;;;2.33;2.03;;;17.20;99.90;;;;;;5082798;28;20455;-52
2021/06/12 04:02:51;;;;;;;2.10;1.90;;;17.20;99.90;;;;;;5083577;28;20466;-51
2021/06/12 04:05:24;;;;;;;2.57;1.90;;;17.20;99.90;;;;;;5081596;28;20451;-49
2021/06/12 04:07:55;;;;;;;1.73;1.63;;;17.20;99.90;;;;;;5082378;28;20495;-50
2021/06/12 04:10:25;;;;;;;1.97;1.63;;;17.20;99.90;;;;;;5082095;28;20544;-52
2021/06/12 04:12:56;;;;;;;1.90;1.70;;;17.10;99.90;;;;;;5083645;28;20482;-53
2021/06/12 04:15:28;;;;;;;2.73;2.30;;;17.10;99.90;;;;;;5080285;28;20456;-48
2021/06/12 04:18:07;;;;;;;3.30;3.00;;;17.20;99.90;;;;;;5082903;28;20451;-51
2021/06/12 04:20:40;;;;;;;3.10;2.90;;;17.20;99.90;;;;;;5078641;28;20457;-53
2021/06/12 04:23:11;;;;;;;5.10;4.20;;;17.20;99.90;;;;;;5082577;28;20444;-51
2021/06/12 04:25:41;;;;;;;5.87;4.87;;;17.10;99.90;;;;;;5081794;28;20444;-52
2021/06/12 04:28:12;;;;;;;4.67;4.20;;;17.10;99.90;;;;;;5083419;28;20460;-52
2021/06/12 04:30:43;;;;;;;3.50;3.20;;;17.10;99.90;;;;;;5082734;28;20498;-50
2021/06/12 04:33:13;;;;;;;4.00;3.07;;;17.10;99.90;;;;;;5083490;28;20479;-54
2021/06/12 04:35:45;;;;;;;3.30;3.00;;;17.10;99.90;;;;;;5082552;28;20448;-54
2021/06/12 04:38:16;;;;;;;3.10;2.60;;;17.10;99.90;;;;;;5082685;28;20463;-53
2021/06/12 04:40:47;;;;;;;2.50;1.93;;;17.00;99.90;;;;;;5081990;28;20807;-54
2021/06/12 04:43:17;;;;;;;2.40;2.23;;;17.10;99.90;;;;;;5083115;28;20451;-50
2021/06/12 04:45:48;;;;;;;3.10;2.90;;;17.10;99.90;;;;;;5082265;28;20502;-52
2021/06/12 04:48:19;;;;;;;4.27;2.80;;;17.10;99.90;;;;;;5081248;28;20490;-51
2021/06/12 04:50:52;;;;;;;2.83;2.63;;;17.10;99.90;;;;;;5081842;28;20495;-49
2021/06/12 04:53:22;;;;;;;2.57;2.43;;;17.00;99.90;;;;;;5082293;28;20892;-54
2021/06/12 04:55:53;;;;;;;3.40;3.20;;;17.00;99.90;;;;;;5081498;28;20440;-53
2021/06/12 04:58:23;;;;;;;3.40;3.10;;;17.00;99.90;;;;;;5082793;28;20451;-54
2021/06/12 05:00:54;;;;;;;3.10;2.50;;;17.10;99.90;;;;;;5082342;28;20940;-53
2021/06/12 05:03:25;;;;;;;6.20;3.43;;;17.00;99.90;;;;;;5082918;28;20559;-52
2021/06/12 05:05:58;;;;;;;2.30;2.20;;;17.00;99.90;;;;;;5081342;28;20941;-50
2021/06/12 05:08:28;;;;;;;2.77;2.57;;;17.10;99.90;;;;;;5081964;28;20451;-49
2021/06/12 05:10:59;;;;;;;2.00;1.80;;;16.90;99.90;;;;;;5081516;28;20552;-52
2021/06/12 05:13:31;;;;;;;2.00;1.80;;;16.80;99.90;;;;;;5082564;28;20485;-51
2021/06/12 05:16:02;;;;;;;2.27;1.87;;;16.80;99.90;;;;;;5081767;28;20497;-54
2021/06/12 05:18:39;;;;;;;2.00;1.90;;;16.80;99.90;;;;;;5081342;28;20893;-50
2021/06/12 05:21:13;;;;;;;0.90;0.90;;;16.70;99.90;;;;;;5085132;28;20462;-54
2021/06/12 05:23:44;;;;;;;1.50;1.40;;;16.80;99.90;;;;;;5085982;28;20447;-49
2021/06/12 05:26:14;;;;;;;1.30;1.20;;;16.80;99.90;;;;;;5084852;28;20496;-49
2021/06/12 05:28:45;;;;;;;0.60;0.60;;;16.80;99.90;;;;;;5085865;28;20451;-49
2021/06/12 05:31:15;;;;;;;1.27;0.97;;;16.80;99.90;;;;;;5085626;28;20602;-48
2021/06/12 05:33:46;;;;;;;0.90;0.70;;;16.70;99.90;;;;;;5085963;28;20598;-49
2021/06/12 05:36:20;;;;;;;0.50;0.50;;;16.80;99.90;;;;;;5084228;28;20451;-47
2021/06/12 05:38:50;;;;;;;0.50;0.50;;;16.70;99.90;;;;;;5084190;28;20439;-48
2021/06/12 05:41:21;;;;;;;0.43;0.40;;;16.60;99.90;;;;;;5084940;28;20508;-51
2021/06/12 05:43:51;;;;;;;1.17;0.63;;;16.60;99.90;;;;;;5084085;28;20483;-49
2021/06/12 05:46:22;;;;;;;0.60;0.60;;;16.60;99.90;;;;;;5080333;28;20467;-50
2021/06/12 05:49:12;;;;;;;1.07;0.70;;;16.50;99.90;;;;;;5077140;28;20456;-52
2021/06/12 05:51:44;;;;;;;0.50;0.50;;;16.50;99.90;;;;;;5085760;28;20855;-51
2021/06/12 05:54:15;;;;;;;0.40;0.30;;;16.40;99.90;;;;;;5083684;28;20451;-49
2021/06/12 05:56:45;;;;;;;0.60;0.60;;;16.30;99.90;;;;;;5084191;28;20460;-48
2021/06/12 05:59:16;;;;;;;1.63;0.60;;;16.20;99.90;;;;;;5083463;28;20539;-51
2021/06/12 06:01:46;;;;;;;0.67;0.47;;;16.10;99.90;;;;;;5085275;28;20444;-48
2021/06/12 06:04:17;;;;;;;0.70;0.70;;;16.10;99.90;;;;;;5084831;28;20451;-51
2021/06/12 06:06:49;;;;;;;0.40;0.40;;;16.10;99.90;;;;;;5084540;28;20448;-52
2021/06/12 06:09:19;;;;;;;0.70;0.63;;;16.10;99.90;;;;;;5083155;28;20479;-54
2021/06/12 06:11:50;;;;;;;0.80;0.70;;;16.10;99.90;;;;;;5085058;28;20844;-53
2021/06/12 06:14:20;;;;;;;0.97;0.83;;;16.10;99.90;;;;;;5069541;28;20448;-49
2021/06/12 06:16:51;;;;;;;0.83;0.70;;;16.10;99.90;;;;;;5084113;28;20506;-53
2021/06/12 06:19:21;;;;;;;0.87;0.60;;;16.00;99.90;;;;;;5084406;28;20609;-49
2021/06/12 06:21:53;;;;;;;1.27;0.87;;;16.00;99.90;;;;;;5084902;28;20490;-49
2021/06/12 06:24:24;;;;;;;0.77;0.70;;;16.00;99.90;;;;;;5083241;28;20580;-51
2021/06/12 06:26:54;;;;;;;1.53;0.83;;;16.10;99.90;;;;;;5084228;28;20440;-50
2021/06/12 06:29:25;;;;;;;1.40;1.27;;;16.20;99.90;;;;;;5083711;28;20513;-50
2021/06/12 06:31:55;;;;;;;1.40;1.30;;;16.20;99.90;;;;;;5083614;28;20486;-46
2021/06/12 06:34:26;;;;;;;1.43;1.23;;;16.10;99.90;;;;;;5083603;28;20511;-48
2021/06/12 06:36:58;;;;;;;0.83;0.83;;;16.10;99.90;;;;;;5084935;28;21515;-52
2021/06/12 06:39:28;;;;;;;1.43;1.20;;;16.10;99.90;;;;;;5083407;28;20452;-50
2021/06/12 06:41:59;;;;;;;1.07;0.97;;;16.00;99.90;;;;;;5084458;28;20447;-48
2021/06/12 06:44:30;;;;;;;1.10;1.00;;;16.00;99.90;;;;;;5083560;28;20474;-49
2021/06/12 06:47:00;;;;;;;1.03;1.03;;;16.00;99.90;;;;;;5083831;28;20479;-52
2021/06/12 06:49:31;;;;;;;1.40;1.10;;;15.90;99.90;;;;;;5075533;28;20459;-52
2021/06/12 06:52:03;;;;;;;1.80;1.00;;;15.90;99.90;;;;;;5083977;28;20446;-51
2021/06/12 06:54:34;;;;;;;1.00;1.00;;;15.80;99.90;;;;;;5082065;28;20972;-53
2021/06/12 06:57:05;;;;;;;0.70;0.70;;;15.80;99.90;;;;;;5083295;28;20459;-54
2021/06/12 06:59:36;;;;;;;2.27;1.00;;;15.80;99.90;;;;;;5083047;28;20447;-50
2021/06/12 07:02:06;;;;;;;1.07;1.00;;;15.80;99.90;;;;;;5083561;28;20455;-52
2021/06/12 07:04:38;;;;;;;1.17;1.10;;;15.90;99.90;;;;;;5082803;28;20954;-51
2021/06/12 07:07:10;;;;;;;1.27;1.27;;;15.80;99.90;;;;;;5083753;28;20455;-50
2021/06/12 07:09:41;;;;;;;1.60;1.50;;;15.80;99.90;;;;;;5082065;28;20484;-53
2021/06/12 07:12:12;;;;;;;1.80;1.70;;;15.80;99.90;;;;;;5082971;28;20517;-51
2021/06/12 07:14:43;;;;;;;1.47;1.37;;;15.80;99.90;;;;;;5083107;28;20990;-50
2021/06/12 07:17:14;;;;;;;1.33;1.23;;;15.90;99.90;;;;;;5083814;28;20444;-53
2021/06/12 07:19:45;;;;;;;1.50;1.40;;;15.80;99.90;;;;;;5081858;28;20819;-50
2021/06/12 07:22:17;;;;;;;1.37;1.27;;;15.80;99.90;;;;;;5082916;28;20490;-52
2021/06/12 07:24:47;;;;;;;1.57;1.30;;;15.80;99.90;;;;;;5082548;28;20451;-47
2021/06/12 07:27:18;;;;;;;1.83;1.40;;;15.70;99.90;;;;;;5082481;28;20451;-48
2021/06/12 07:29:49;;;;;;;0.80;0.80;;;15.70;99.90;;;;;;5071833;28;20940;-48
2021/06/12 07:32:19;;;;;;;1.00;1.00;;;15.70;99.90;;;;;;5083355;28;20526;-48
2021/06/12 07:34:50;;;;;;;1.57;0.80;;;15.60;99.90;;;;;;5083002;28;20447;-48
2021/06/12 07:37:25;;;;;;;0.80;0.80;;;15.60;99.90;;;;;;5083313;28;20454;-50
2021/06/12 07:39:56;;;;;;;0.80;0.80;;;15.50;99.90;;;;;;5081091;28;20467;-50
2021/06/12 07:42:27;;;;;;;1.00;0.80;;;15.60;99.90;;;;;;5083205;28;20517;-50
2021/06/12 07:44:57;;;;;;;0.77;0.70;;;15.60;99.90;;;;;;5082855;28;20451;-48
2021/06/12 07:47:28;;;;;;;1.30;1.20;;;15.70;99.90;;;;;;5081914;28;20836;-52
2021/06/12 07:49:59;;;;;;;1.23;1.00;;;15.70;99.90;;;;;;5082294;28;20961;-49
2021/06/12 07:52:31;;;;;;;0.77;0.70;;;15.60;99.90;;;;;;5083307;28;20507;-49
2021/06/12 07:55:01;;;;;;;1.00;0.90;;;15.60;99.90;;;;;;5080980;28;20505;-48
2021/06/12 07:57:32;;;;;;;1.00;1.00;;;15.60;99.90;;;;;;5082069;28;20448;-53
2021/06/12 08:00:03;;;;;;;0.73;0.57;;;15.70;99.90;;;;;;5073274;28;20482;-50
2021/06/12 08:02:33;;;;;;;0.80;0.80;;;15.60;99.90;;;;;;5082939;28;20567;-51
2021/06/12 08:05:04;;;;;;;1.10;1.00;;;15.60;99.90;;;;;;5082912;28;20896;-52
2021/06/12 08:07:36;;;;;;;1.10;1.00;;;15.60;99.90;;;;;;5083053;28;20925;-48
2021/06/12 08:10:08;;;;;;;0.93;0.83;;;15.60;99.90;;;;;;5080544;28;20448;-51
2021/06/12 08:12:40;;;;;;;0.93;0.93;;;15.60;99.90;;;;;;5082616;28;20487;-50
2021/06/12 08:15:12;;;;;;;1.17;0.97;;;15.60;99.90;;;;;;5082632;28;20530;-50
2021/06/12 08:17:42;;;;;;;0.90;0.90;;;15.60;99.90;;;;;;5082816;28;20562;-51
2021/06/12 08:20:13;;;;;;;1.43;1.00;;;15.60;99.90;;;;;;5081493;28;20535;-51
2021/06/12 08:22:45;;;;;;;0.90;0.90;;;15.60;99.90;;;;;;5082872;28;20530;-48
2021/06/12 08:25:16;;;;;;;0.90;0.90;;;15.50;99.90;;;;;;5081036;28;20482;-48
2021/06/12 08:27:47;;;;;;;1.07;0.80;;;15.60;99.90;;;;;;5082755;28;20527;-47
2021/06/12 08:30:19;;;;;;;1.20;1.10;;;15.60;99.90;;;;;;5081523;28;20451;-48
2021/06/12 08:32:49;;;;;;;1.10;1.10;;;15.60;99.90;;;;;;5082673;28;20483;-51
2021/06/12 08:35:19;;;;;;;0.97;0.87;;;15.50;99.90;;;;;;5082225;28;20447;-48
2021/06/12 08:37:51;;;;;;;1.10;1.10;;;15.40;99.90;;;;;;5082921;28;20439;-51
2021/06/12 08:40:23;;;;;;;1.00;0.97;;;15.40;99.90;;;;;;5080541;28;20493;-47
2021/06/12 08:42:54;;;;;;;1.20;1.10;;;15.50;99.90;;;;;;5082534;28;20466;-47
2021/06/12 08:45:28;;;;;;;2.27;1.20;;;15.60;99.90;;;;;;5081179;28;20447;-49
2021/06/12 08:48:00;;;;;;;1.10;1.00;;;15.40;99.90;;;;;;5063960;28;20459;-50
2021/06/12 08:50:32;;;;;;;0.77;0.77;;;15.40;99.90;;;;;;5076534;28;20451;-49
2021/06/12 08:53:04;;;;;;;1.10;1.00;;;15.30;99.90;;;;;;5082917;28;21033;-49
2021/06/12 08:55:42;;;;;;;0.80;0.70;;;15.30;99.90;;;;;;5082839;28;20435;-48
2021/06/12 08:58:13;;;;;;;0.70;0.53;;;15.30;99.90;;;;;;5086015;28;20444;-48
2021/06/12 09:00:44;;;;;;;0.77;0.77;;;15.30;99.90;;;;;;5085353;28;20778;-50
2021/06/12 09:03:16;;;;;;;0.77;0.73;;;15.30;99.90;;;;;;5086225;28;20495;-53
2021/06/12 09:05:52;;;;;;;1.27;0.73;;;15.20;99.90;;;;;;5070331;28;20481;-54
2021/06/12 09:08:25;;;;;;;0.80;0.63;;;15.10;99.90;;;;;;5085929;28;20435;-50
2021/06/12 09:10:57;;;;;;;0.80;0.80;;;15.10;99.90;;;;;;5084512;28;21009;-48
2021/06/12 09:13:40;;;;;;;1.00;1.00;;;14.90;99.90;;;;;;5085498;28;20483;-49
2021/06/12 09:16:25;;;;;;;0.73;0.73;;;14.80;99.90;;;;;;5085047;28;20925;-49
2021/06/12 09:19:14;;;;;;;1.23;0.90;;;14.60;99.90;;;;;;5084302;28;20450;-51
2021/06/12 09:21:46;;;;;;;1.00;1.00;;;14.50;99.90;;;;;;5085557;28;20479;-50
2021/06/12 09:24:27;;;;;;;1.00;0.83;;;14.40;99.90;;;;;;5084653;28;20439;-54
2021/06/12 09:26:59;;;;;;;1.33;0.90;;;14.40;99.90;;;;;;5085541;28;20482;-53
2021/06/12 09:29:35;;;;;;;0.93;0.80;;;14.40;99.90;;;;;;5081321;28;20470;-53
2021/06/12 09:32:12;;;;;;;1.43;1.33;;;14.20;99.90;;;;;;5080035;28;20475;-51
2021/06/12 09:34:44;;;;;;;0.83;0.80;;;14.20;99.90;;;;;;5080211;28;20538;-52
2021/06/12 09:37:16;;;;;;;0.90;0.63;;;14.10;99.90;;;;;;5085267;28;20809;-51
2021/06/12 09:40:00;;;;;;;1.60;0.93;;;14.20;99.90;;;;;;5083534;28;20443;-53
2021/06/12 09:42:41;;;;;;;1.03;1.00;;;14.20;99.90;;;;;;5084967;28;20523;-51
2021/06/12 09:45:13;;;;;;;1.17;1.17;;;14.20;99.90;;;;;;5085576;28;20475;-51
2021/06/12 09:47:44;;;;;;;0.90;0.90;;;14.30;99.90;;;;;;5080748;28;20452;-49
2021/06/12 09:50:16;;;;;;;2.30;1.10;;;14.30;99.90;;;;;;5084043;28;20463;-53
2021/06/12 09:52:48;;;;;;;1.00;1.00;;;14.40;99.90;;;;;;5085413;28;20483;-49
2021/06/12 09:55:30;;;;;;;1.10;1.00;;;14.40;99.90;;;;;;5082709;28;20563;-49
2021/06/12 09:58:02;;;;;;;1.03;0.90;;;14.40;99.90;;;;;;5083372;28;20486;-52
2021/06/12 10:00:37;;;;;;;1.10;0.97;;;14.50;99.90;;;;;;5084340;28;20515;-50
2021/06/12 10:03:19;;;;;;;1.10;1.00;;;14.50;99.90;;;;;;5085403;28;20471;-51
2021/06/12 10:06:09;;;;;;;1.47;1.07;;;14.50;99.90;;;;;;5083814;28;20444;-50
2021/06/12 10:08:41;;;;;;;0.97;0.80;;;14.50;99.90;;;;;;5084952;28;20532;-48
2021/06/12 10:11:14;;;;;;;1.07;0.90;;;14.40;99.90;;;;;;5083684;28;20506;-50
2021/06/12 10:13:46;;;;;;;0.97;0.97;;;14.40;99.90;;;;;;5084512;28;20873;-49
2021/06/12 10:16:17;;;;;;;0.87;0.80;;;14.40;99.90;;;;;;5084383;28;20447;-53
2021/06/12 10:18:51;;;;;;;1.20;1.10;;;14.40;99.90;;;;;;5084562;28;20435;-50
2021/06/12 10:21:22;;;;;;;0.90;0.90;;;14.20;99.90;;;;;;5079782;28;20451;-51
2021/06/12 10:23:53;;;;;;;0.70;0.70;;;14.20;99.90;;;;;;5084478;28;20559;-47
2021/06/12 10:26:25;;;;;;;1.67;1.10;;;14.20;99.90;;;;;;5084190;28;20452;-49
2021/06/12 10:28:56;;;;;;;1.57;1.10;;;14.20;99.90;;;;;;5084046;28;20456;-50
2021/06/12 10:31:28;;;;;;;0.97;0.97;;;14.20;99.90;;;;;;5084065;28;20447;-49
2021/06/12 10:33:59;;;;;;;0.73;0.73;;;14.20;99.90;;;;;;5084489;28;20483;-48
2021/06/12 10:36:31;;;;;;;0.90;0.80;;;14.30;99.90;;;;;;5084499;28;20531;-53
2021/06/12 10:39:03;;;;;;;1.27;1.20;;;14.40;99.90;;;;;;5083237;28;20501;-49
2021/06/12 10:41:37;;;;;;;0.97;0.90;;;14.40;99.90;;;;;;5084073;28;20448;-52
2021/06/12 10:44:08;;;;;;;1.77;1.17;;;14.40;99.90;;;;;;5082317;28;20481;-49
2021/06/12 10:49:36;;;;;;;3.00;1.10;;;14.30;99.90;;;;;;5083138;28;20519;-48
2021/06/12 10:52:10;;;;;;;0.97;0.90;;;14.10;99.90;;;;;;5084066;28;20479;-50
2021/06/12 10:54:41;;;;;;;0.70;0.70;;;14.10;99.90;;;;;;5082218;28;20458;-48
2021/06/12 10:57:19;;;;;;;1.00;1.00;;;14.10;99.90;;;;;;5083744;28;20471;-51
2021/06/12 10:59:52;;;;;;;1.67;1.20;;;14.00;99.90;;;;;;5083628;28;20451;-50
2021/06/12 11:02:26;;;;;;;1.50;1.23;;;14.10;99.90;;;;;;5083021;28;20467;-52
2021/06/12 11:05:00;;;;;;;1.37;1.20;;;14.10;99.90;;;;;;5083267;28;20477;-47
2021/06/12 11:07:33;;;;;;;1.57;1.00;;;14.10;99.90;;;;;;5084003;28;20564;-48
2021/06/12 11:10:25;;;;;;;1.87;1.50;;;14.10;99.90;;;;;;5082670;28;20456;-52
2021/06/12 11:12:58;;;;;;;1.60;1.50;;;14.20;99.90;;;;;;5082933;28;20491;-48
2021/06/12 11:15:33;;;;;;;2.30;1.60;;;14.20;99.90;;;;;;5082993;28;20551;-48
2021/06/12 11:18:15;;;;;;;1.63;1.53;;;14.30;99.90;;;;;;5082922;28;20453;-49
2021/06/12 11:20:49;;;;;;;1.57;1.43;;;14.30;99.90;;;;;;5083199;28;20477;-47
2021/06/12 11:23:20;;;;;;;1.40;1.30;;;14.30;99.90;;;;;;5083398;28;20521;-48
2021/06/12 11:26:00;;;;;;;1.30;1.20;;;14.30;99.90;;;;;;5077874;28;20469;-48
2021/06/12 11:28:38;;;;;;;1.30;1.20;;;14.40;99.90;;;;;;5083927;28;20452;-49
2021/06/12 11:31:37;;;;;;;1.50;1.40;;;14.50;99.90;;;;;;5082277;28;20804;-49
2021/06/12 11:34:15;;;;;;;1.60;1.07;;;14.40;99.90;;;;;;5081182;28;20487;-51
2021/06/12 11:36:47;;;;;;;1.30;1.30;;;14.40;99.90;;;;;;5083080;28;20778;-48
2021/06/12 11:39:18;;;;;;;2.70;1.30;;;14.30;99.90;;;;;;5081632;28;21000;-48
2021/06/12 11:41:52;;;;;;;1.70;1.40;;;14.30;99.90;;;;;;5083259;28;20460;-46
2021/06/12 11:44:29;;;;;;;0.87;0.87;;;14.30;99.90;;;;;;5082520;28;20551;-49
2021/06/12 11:47:00;;;;;;;1.10;1.00;;;14.30;99.90;;;;;;5083706;28;20549;-47
2021/06/12 11:49:31;;;;;;;1.10;1.10;;;14.30;99.90;;;;;;5074450;28;20459;-51
2021/06/12 11:52:01;;;;;;;1.27;1.17;;;14.30;99.90;;;;;;5082943;28;20451;-49
2021/06/12 11:54:32;;;;;;;1.37;1.27;;;14.30;99.90;;;;;;5075170;28;20891;-50
2021/06/12 11:57:07;;;;;;;1.93;1.10;;;14.40;99.90;;;;;;5082737;28;20447;-47
2021/06/12 11:59:40;;;;;;;1.40;1.30;;;14.30;99.90;;;;;;5082056;28;20471;-49
2021/06/12 12:02:11;;;;;;;1.77;1.10;;;14.30;99.90;;;;;;5082225;28;20448;-47
2021/06/12 12:04:42;;;;;;;3.37;1.20;;;14.30;99.90;;;;;;5082287;28;20460;-47
2021/06/12 12:07:15;;;;;;;1.30;1.20;;;14.30;99.90;;;;;;5082517;28;20447;-47
2021/06/12 12:09:56;;;;;;;1.87;1.37;;;14.30;99.90;;;;;;5081760;28;20452;-48
2021/06/12 12:12:35;;;;;;;1.40;1.30;;;14.30;99.90;;;;;;5082681;28;20542;-46
2021/06/12 12:15:09;;;;;;;1.10;1.10;;;14.40;99.90;;;;;;5082220;28;20465;-48
2021/06/12 12:17:39;;;;;;;1.27;1.17;;;14.40;99.90;;;;;;5083481;28;20521;-49
2021/06/12 12:20:12;;;;;;;1.10;0.93;;;14.40;99.90;;;;;;5082499;28;20436;-47
2021/06/12 12:22:44;;;;;;;1.20;1.20;;;14.50;99.90;;;;;;5082945;28;20475;-46
2021/06/12 12:25:16;;;;;;;1.13;1.03;;;14.40;99.90;;;;;;5081244;28;20450;-48
2021/06/12 12:28:03;;;;;;;1.40;1.30;;;14.40;99.90;;;;;;5083230;28;20486;-51
2021/06/12 12:30:36;;;;;;;1.23;1.13;;;14.50;99.90;;;;;;5084092;28;20471;-48
2021/06/12 12:33:11;;;;;;;1.93;1.57;;;14.50;99.90;;;;;;5085799;28;20486;-47
2021/06/12 12:35:42;;;;;;;1.80;1.57;;;14.60;99.90;;;;;;5087060;28;20448;-50
2021/06/12 12:38:14;;;;;;;1.50;1.40;;;14.60;99.90;;;;;;5086356;28;20455;-49
2021/06/12 12:40:46;;;;;;;1.57;1.30;;;14.50;99.90;;;;;;5085670;28;20928;-50
2021/06/12 12:43:19;;;;;;;1.90;1.27;;;14.50;99.90;;;;;;5084850;28;20455;-48
2021/06/12 12:45:55;;;;;;;1.40;1.30;;;14.50;99.90;;;;;;5086222;28;20475;-49
2021/06/12 12:48:27;;;;;;;1.10;1.10;;;14.40;99.90;;;;;;5077407;28;20479;-49
2021/06/12 12:50:57;;;;;;;1.17;0.97;;;14.60;99.90;;;;;;5086062;28;20479;-49
2021/06/12 12:53:38;;;;;;;1.30;1.20;;;14.60;99.90;;;;;;5085672;28;20527;-48
2021/06/12 12:56:09;;;;;;;0.80;0.80;;;14.60;99.90;;;;;;5078244;28;20528;-50
2021/06/12 12:58:40;;;;;;;1.07;1.07;;;14.80;99.90;;;;;;5085981;28;20455;-49
2021/06/12 13:01:14;;;;;;;1.13;1.13;;;14.90;99.90;;;;;;5085798;28;20505;-52
2021/06/12 13:03:47;;;;;;;1.70;1.60;;;14.90;99.90;;;;;;5084757;28;20462;-48
2021/06/12 13:06:34;;;;;;;1.60;1.40;;;14.90;99.90;;;;;;5085874;28;20491;-49
2021/06/12 13:09:15;;;;;;;1.27;1.17;;;14.90;99.90;;;;;;5085397;28;20444;-52
2021/06/12 13:11:47;;;;;;;1.07;1.07;;;14.80;99.90;;;;;;5086026;28;20959;-49
2021/06/12 13:14:26;;;;;;;1.10;0.90;;;14.80;99.90;;;;;;5085046;28;20960;-48
2021/06/12 13:17:06;;;;;;;1.20;1.17;;;14.80;99.90;;;;;;5073397;28;20462;-51
2021/06/12 13:19:42;;;;;;;1.63;1.30;;;15.00;99.90;;;;;;5085453;28;20451;-51
2021/06/12 13:22:30;;;;;;;1.20;1.10;;;15.20;99.90;;;;;;5086260;28;20541;-51
2021/06/12 13:25:07;;;;;;;1.70;1.60;;;15.30;99.90;;;;;;5076927;28;21018;-48